M I D A S
Marine Information and Data Acquisition System
Tripno 1829 of the Zeeleeuw from 2009-12-18 07:37:33 to 2009-12-18 15:35:12
Back to CruiseResearch ActivitiesStationsMapUnderway DataData graphs

EquipmentUnitsComment
TimeDGPSUTC
LatitudeDGPSDM.mWGS84
LongitudeDGPSDM.mWGS84
HeadingGyrodeg 
SOGDGPSknotsSpeed over ground
COGDGPSdegCourse over ground
DepthEcho soundermeters200 kHz
Missing or incorrect values are displayed as -999
Navigation data collected by the RV Zeeleeuw from 2009-12-18 07:40:09 to 2009-12-18 15:38:23
                                                                                    Next 1000 lines
Time Latitude Longitude Heading SOG COG Depth
2009-12-18 07:40:19 51°13.662 2°55.955 109 1.1 295 5.9
2009-12-18 07:40:24 51°13.663 2°55.951 109 1.6 293 5.9
2009-12-18 07:40:29 51°13.665 2°55.947 109 2.1 295 5.9
2009-12-18 07:40:35 51°13.666 2°55.941 109 2.4 292 -999
2009-12-18 07:40:40 51°13.668 2°55.936 108.6 2.8 293 -999
2009-12-18 07:40:46 51°13.669 2°55.928 108.2 3 291 -999
2009-12-18 07:40:51 51°13.671 2°55.922 107.3 3.1 290 -999
2009-12-18 07:40:57 51°13.673 2°55.913 106.8 3.3 288 -999
2009-12-18 07:41:03 51°13.674 2°55.905 106.5 3.4 288 -999
2009-12-18 07:41:08 51°13.676 2°55.897 106.4 3.6 287 -999
2009-12-18 07:41:13 51°13.677 2°55.889 106.9 3.7 288 -999
2009-12-18 07:41:18 51°13.679 2°55.881 107.5 3.8 289 -999
2009-12-18 07:41:23 51°13.681 2°55.873 108.4 3.9 289 -999
2009-12-18 07:41:28 51°13.683 2°55.865 109.3 4 290 -999
2009-12-18 07:41:33 51°13.685 2°55.856 109.8 4 290 -999
2009-12-18 07:41:38 51°13.687 2°55.848 110.4 4 292 -999
2009-12-18 07:41:43 51°13.689 2°55.84 111.6 4 293 -999
2009-12-18 07:41:48 51°13.691 2°55.832 113.1 4 293 -999
2009-12-18 07:41:53 51°13.694 2°55.824 114.6 4.1 295 -999
2009-12-18 07:41:58 51°13.696 2°55.816 116.1 4.1 296 -999
2009-12-18 07:42:03 51°13.699 2°55.808 117.7 4.1 298 -999
2009-12-18 07:42:08 51°13.702 2°55.8 119.3 4.1 299 -999
2009-12-18 07:42:13 51°13.705 2°55.792 120.9 4.2 301 -999
2009-12-18 07:42:18 51°13.708 2°55.784 122.5 4.2 302 -999
2009-12-18 07:42:23 51°13.711 2°55.776 124.2 4.2 304 -999
2009-12-18 07:42:28 51°13.715 2°55.769 125.7 4.2 305 -999
2009-12-18 07:42:33 51°13.718 2°55.761 127.1 4.2 307 -999
2009-12-18 07:42:38 51°13.722 2°55.754 128.6 4.3 307 -999
2009-12-18 07:42:43 51°13.725 2°55.746 130 4.3 309 -999
2009-12-18 07:42:47 51°13.728 2°55.741 131.3 4.3 310 -999
2009-12-18 07:42:53 51°13.733 2°55.732 132.7 4.3 311 -999
2009-12-18 07:42:58 51°13.737 2°55.725 134.1 4.3 313 -999
2009-12-18 07:43:03 51°13.741 2°55.719 135.4 4.3 315 -999
2009-12-18 07:43:08 51°13.746 2°55.712 136.8 4.3 316 -999
2009-12-18 07:43:13 51°13.75 2°55.706 138.7 4.3 318 -999
2009-12-18 07:43:18 51°13.755 2°55.7 140.8 4.3 320 -999
2009-12-18 07:43:23 51°13.76 2°55.694 143 4.4 322 -999
2009-12-18 07:43:28 51°13.764 2°55.688 145.2 4.4 324 -999
2009-12-18 07:43:33 51°13.77 2°55.682 147 4.6 326 -999
2009-12-18 07:43:38 51°13.775 2°55.677 149.6 4.7 328 -999
2009-12-18 07:43:43 51°13.781 2°55.672 151.7 4.7 330 -999
2009-12-18 07:43:48 51°13.787 2°55.667 153.9 4.8 333 -999
2009-12-18 07:43:53 51°13.793 2°55.663 156.1 4.8 335 -999
2009-12-18 07:43:58 51°13.799 2°55.659 158.1 4.7 338 -999
2009-12-18 07:44:03 51°13.805 2°55.655 160.2 4.6 339 -999
2009-12-18 07:44:08 51°13.811 2°55.652 162 4.6 342 -999
2009-12-18 07:44:13 51°13.817 2°55.649 163.5 4.7 343 -999
2009-12-18 07:44:26 51°13.834 2°55.643 165.4 4.7 346 -999
2009-12-18 07:44:31 51°13.84 2°55.64 166.4 4.7 346 -999
2009-12-18 07:44:31 51°13.84 2°55.64 166.4 4.7 346 -999
2009-12-18 07:44:44 51°13.856 2°55.634 168.4 4.4 348 -999
2009-12-18 07:44:49 51°13.862 2°55.632 169.6 4.4 348 -999
2009-12-18 07:44:54 51°13.868 2°55.631 170.9 4.2 350 -999
2009-12-18 07:44:59 51°13.874 2°55.629 172.3 4.1 350 -999
2009-12-18 07:45:04 51°13.879 2°55.628 173.6 3.9 351 -999
2009-12-18 07:45:09 51°13.884 2°55.627 174.9 3.8 352 -999
2009-12-18 07:45:14 51°13.889 2°55.626 176.5 3.6 353 -999
2009-12-18 07:45:19 51°13.894 2°55.625 178.1 3.5 354 -999
2009-12-18 07:45:24 51°13.899 2°55.624 179.8 3.4 355 -999
2009-12-18 07:45:29 51°13.903 2°55.624 181.8 3.2 356 -999
2009-12-18 07:45:34 51°13.907 2°55.623 183.6 3.1 357 -999
2009-12-18 07:45:39 51°13.911 2°55.623 185.6 3 359 -999
2009-12-18 07:45:44 51°13.915 2°55.623 187.8 2.9 359 -999
2009-12-18 07:45:49 51°13.919 2°55.624 190.2 2.7 2 -999
2009-12-18 07:45:54 51°13.923 2°55.624 192.3 2.6 2 -999
2009-12-18 07:45:59 51°13.926 2°55.625 194.2 2.4 5 4.8
2009-12-18 07:46:03 51°13.929 2°55.625 196.5 2.3 6 8.9
2009-12-18 07:46:08 51°13.932 2°55.626 198.3 2.2 7 4.7
2009-12-18 07:46:13 51°13.934 2°55.626 200 2.1 9 9.4
2009-12-18 07:46:18 51°13.937 2°55.627 202.2 1.9 9 9.3
2009-12-18 07:46:23 51°13.939 2°55.628 204.6 1.6 11 9.2
2009-12-18 07:46:27 51°13.941 2°55.628 207.1 1.4 10 9.3
2009-12-18 07:46:33 51°13.943 2°55.629 209.9 1.2 8 9.4
2009-12-18 07:46:38 51°13.944 2°55.629 212.7 0.9 6 9.3
2009-12-18 07:46:42 51°13.944 2°55.629 215.8 0.7 352 9.4
2009-12-18 07:46:47 51°13.945 2°55.628 218.9 0.5 345 9.4
2009-12-18 07:46:52 51°13.946 2°55.628 222.4 0.5 322 9.3
2009-12-18 07:46:57 51°13.946 2°55.627 226.2 0.4 308 9.2
2009-12-18 07:47:02 51°13.946 2°55.626 230 0.5 296 9.2
2009-12-18 07:47:07 51°13.946 2°55.625 233.8 0.5 282 9
2009-12-18 07:47:11 51°13.947 2°55.623 237.4 0.8 277 9
2009-12-18 07:47:16 51°13.946 2°55.621 242 1 265 9.2
2009-12-18 07:47:21 51°13.946 2°55.619 245.6 1.2 270 9.4
2009-12-18 07:47:26 51°13.946 2°55.616 251 1.3 270 9.1
2009-12-18 07:47:31 51°13.946 2°55.613 256.3 1.4 272 9.4
2009-12-18 07:47:36 51°13.947 2°55.609 261.4 1.5 277 -999
2009-12-18 07:47:42 51°13.947 2°55.605 268.5 1.7 282 9.5
2009-12-18 07:47:47 51°13.948 2°55.601 273.4 1.7 286 9.5
2009-12-18 07:47:52 51°13.949 2°55.597 277.5 1.9 291 9.3
2009-12-18 07:47:57 51°13.95 2°55.593 281.5 2.1 295 9.4
2009-12-18 07:48:02 51°13.951 2°55.589 286.7 2.4 300 9.4
2009-12-18 07:48:07 51°13.953 2°55.584 293.9 2.6 305 9.4
2009-12-18 07:48:12 51°13.956 2°55.579 298.6 2.9 309 9.4
2009-12-18 07:48:17 51°13.959 2°55.574 304.4 3.2 314 -999
2009-12-18 07:48:23 51°13.963 2°55.568 310.7 3.5 317 -999
2009-12-18 07:48:29 51°13.968 2°55.562 315.9 3.7 321 -999
2009-12-18 07:48:34 51°13.972 2°55.556 320.1 4.1 323 -999
2009-12-18 07:48:38 51°13.976 2°55.552 323.1 4.4 325 9.4
2009-12-18 07:48:43 51°13.982 2°55.546 324.3 4.8 327 9.4
2009-12-18 07:48:48 51°13.988 2°55.539 326 5.4 329 -999
2009-12-18 07:48:53 51°13.995 2°55.533 327.6 6 330 9.4
2009-12-18 07:48:58 51°14.003 2°55.526 328.7 6.5 330 9.4
2009-12-18 07:49:03 51°14.011 2°55.519 329.3 6.8 332 -999
2009-12-18 07:49:08 51°14.02 2°55.511 330.9 7.3 331 -999
2009-12-18 07:49:13 51°14.029 2°55.503 331.4 7.7 332 -999
2009-12-18 07:49:18 51°14.039 2°55.494 331.7 8 331 9.9
2009-12-18 07:49:23 51°14.049 2°55.486 331.7 8.2 332 -999
2009-12-18 07:49:28 51°14.059 2°55.477 331.8 8.5 331 9.2
2009-12-18 07:49:33 51°14.07 2°55.468 331.8 8.7 332 9.8
2009-12-18 07:49:39 51°14.083 2°55.456 331.8 8.9 331 -999
2009-12-18 07:49:43 51°14.091 2°55.448 331.4 9 331 -999
2009-12-18 07:49:49 51°14.105 2°55.437 331.6 9.2 332 -999
2009-12-18 07:49:54 51°14.116 2°55.428 332.4 9.2 333 -999
2009-12-18 07:49:58 51°14.126 2°55.42 333.2 9.3 333 -999
2009-12-18 07:50:03 51°14.137 2°55.41 332.5 9.4 331 -999
2009-12-18 07:50:09 51°14.151 2°55.398 331.7 9.5 331 -999
2009-12-18 07:50:14 51°14.162 2°55.388 331.7 9.6 331 -999
2009-12-18 07:50:18 51°14.172 2°55.38 332.2 9.6 331 -999
2009-12-18 07:50:23 51°14.183 2°55.369 332.2 9.6 330 -999
2009-12-18 07:50:29 51°14.197 2°55.356 330.3 9.6 328 -999
2009-12-18 07:50:33 51°14.205 2°55.347 329.3 9.5 327 9.5
2009-12-18 07:50:38 51°14.216 2°55.335 329.2 9.5 326 9.6
2009-12-18 07:50:43 51°14.227 2°55.322 328.2 9.5 320 9.6
2009-12-18 07:50:48 51°14.237 2°55.308 322.8 9.4 320 -999
2009-12-18 07:50:54 51°14.248 2°55.292 320.5 9.4 317 -999
2009-12-18 07:50:58 51°14.255 2°55.279 317.3 9.5 313 9.3
2009-12-18 07:51:03 51°14.264 2°55.263 314.6 9.5 309 9.1
2009-12-18 07:51:08 51°14.272 2°55.247 311.3 9.7 310 9.1
2009-12-18 07:51:13 51°14.281 2°55.23 310.4 9.7 308 9.2
2009-12-18 07:51:18 51°14.289 2°55.213 310.3 9.7 309 9.6
2009-12-18 07:51:23 51°14.298 2°55.196 309.9 9.9 308 9.7
2009-12-18 07:51:27 51°14.304 2°55.181 309.1 10.1 307 9.9
2009-12-18 07:51:32 51°14.313 2°55.163 307.6 10.3 305 9.3
2009-12-18 07:51:38 51°14.322 2°55.14 306.5 10.3 305 9.3
2009-12-18 07:51:42 51°14.329 2°55.125 305.7 10.4 305 9.1
2009-12-18 07:51:47 51°14.337 2°55.106 305.1 10.6 303 9.2
2009-12-18 07:51:52 51°14.345 2°55.086 304.2 10.8 302 9
2009-12-18 07:51:57 51°14.353 2°55.065 303.1 10.8 302 9
2009-12-18 07:52:02 51°14.361 2°55.045 302.2 11 302 9.1
2009-12-18 07:52:07 51°14.369 2°55.025 302 10.9 303 8.4
2009-12-18 07:52:12 51°14.377 2°55.005 302.8 10.8 305 8.3
2009-12-18 07:52:17 51°14.387 2°54.987 305 10.7 309 8.2
2009-12-18 07:52:22 51°14.397 2°54.969 309.1 10.8 314 8.2
2009-12-18 07:52:27 51°14.409 2°54.954 314.1 10.7 318 8.9
2009-12-18 07:52:31 51°14.418 2°54.942 318.9 10.8 323 8.9
2009-12-18 07:52:36 51°14.43 2°54.93 323.9 10.7 328 9.3
2009-12-18 07:52:41 51°14.443 2°54.918 329 10.6 332 8.8
2009-12-18 07:52:46 51°14.457 2°54.909 334 10.4 335 8.9
2009-12-18 07:52:51 51°14.47 2°54.9 338.3 10.3 338 8.4
2009-12-18 07:52:56 51°14.484 2°54.892 342.3 10.4 340 9.3
2009-12-18 07:53:01 51°14.498 2°54.885 346.7 10.4 344 9.6
2009-12-18 07:53:06 51°14.511 2°54.878 348.6 10.4 339 9.6
2009-12-18 07:53:11 51°14.524 2°54.871 348.9 10.2 343 8.7
2009-12-18 07:53:16 51°14.538 2°54.865 351.4 10.3 343 8.7
2009-12-18 07:53:20 51°14.549 2°54.859 352.7 10.3 343 8.5
2009-12-18 07:53:26 51°14.566 2°54.852 353.9 10.4 346 8.8
2009-12-18 07:53:30 51°14.577 2°54.847 354.5 10.3 345 9.3
2009-12-18 07:53:35 51°14.59 2°54.843 356 10.2 348 8.9
2009-12-18 07:53:40 51°14.604 2°54.837 356.5 10.4 346 8.8
2009-12-18 07:53:45 51°14.618 2°54.833 357.1 10.3 349 8.7
2009-12-18 07:53:50 51°14.632 2°54.828 357.5 10.3 347 8.8
2009-12-18 07:53:55 51°14.646 2°54.824 358 10.2 351 8.5
2009-12-18 07:54:00 51°14.66 2°54.819 358.7 10.2 349 8.4
2009-12-18 07:54:05 51°14.674 2°54.816 359.1 10.2 350 8.5
2009-12-18 07:54:10 51°14.688 2°54.812 359.4 10.3 351 8.9
2009-12-18 07:54:15 51°14.702 2°54.809 359.4 10.1 352 8.4
2009-12-18 07:54:19 51°14.713 2°54.806 359.4 10.1 350 8.9
2009-12-18 07:54:25 51°14.73 2°54.802 359.2 10.1 351 8.7
2009-12-18 07:54:30 51°14.744 2°54.798 359.4 10.2 351 8.6
2009-12-18 07:54:35 51°14.758 2°54.794 359.5 10.3 351 8.8
2009-12-18 07:54:40 51°14.772 2°54.79 358.9 10.4 350 8.6
2009-12-18 07:54:45 51°14.786 2°54.787 359.4 10.2 352 8.2
2009-12-18 07:54:50 51°14.801 2°54.784 0.4 10.3 352 8.1
2009-12-18 07:54:55 51°14.815 2°54.78 0.1 10.4 352 8.4
2009-12-18 07:54:59 51°14.826 2°54.777 359.8 10.5 351 8.4
2009-12-18 07:55:05 51°14.844 2°54.774 359.6 10.4 353 8
2009-12-18 07:55:10 51°14.858 2°54.771 0.4 10.3 354 8.1
2009-12-18 07:55:15 51°14.872 2°54.77 0.8 10 355 7.6
2009-12-18 07:55:19 51°14.883 2°54.768 0.4 10 355 8
2009-12-18 07:55:25 51°14.9 2°54.766 0.5 10.1 355 7.6
2009-12-18 07:55:30 51°14.914 2°54.764 0.4 10.3 355 7.3
2009-12-18 07:55:35 51°14.928 2°54.761 0.1 10.2 354 7.5
2009-12-18 07:55:40 51°14.942 2°54.759 359.5 10 353 7.8
2009-12-18 07:55:45 51°14.956 2°54.756 359.4 10.2 354 8
2009-12-18 07:55:50 51°14.97 2°54.753 359.4 10.2 354 7.8
2009-12-18 07:55:55 51°14.984 2°54.751 359.6 10.2 354 8.2
2009-12-18 07:56:00 51°14.998 2°54.747 359.4 10.3 352 7.9
2009-12-18 07:56:05 51°15.012 2°54.746 359.8 10 354 7.1
2009-12-18 07:56:10 51°15.026 2°54.743 359.6 10.1 352 6.8
2009-12-18 07:56:15 51°15.04 2°54.741 359.7 10.1 353 7.2
2009-12-18 07:56:20 51°15.054 2°54.738 0.2 10.1 354 7.3
2009-12-18 07:56:25 51°15.068 2°54.735 0.3 10.1 354 7.4
2009-12-18 07:56:30 51°15.082 2°54.733 0.9 10.1 354 7.1
2009-12-18 07:56:35 51°15.096 2°54.73 0.6 10.2 352 5.3
2009-12-18 07:56:40 51°15.11 2°54.726 358.1 10.2 351 7
2009-12-18 07:56:45 51°15.124 2°54.722 358 10.2 350 7
2009-12-18 07:56:50 51°15.138 2°54.716 356.1 10.3 344 6.7
2009-12-18 07:56:55 51°15.151 2°54.711 354.3 10 348 6.4
2009-12-18 07:56:59 51°15.162 2°54.708 354.3 10.3 346 7.4
2009-12-18 07:57:05 51°15.178 2°54.701 353 10.2 346 7.5
2009-12-18 07:57:10 51°15.192 2°54.694 351.7 10.3 344 7
2009-12-18 07:57:15 51°15.206 2°54.687 351.8 10.2 343 7.2
2009-12-18 07:57:19 51°15.217 2°54.682 351.6 10.4 341 7.2
2009-12-18 07:57:25 51°15.233 2°54.674 350.3 10.4 345 7.4
2009-12-18 07:57:30 51°15.247 2°54.667 350.7 10.5 340 5.5
2009-12-18 07:57:35 51°15.261 2°54.659 349.3 10.6 340 7.2
2009-12-18 07:57:39 51°15.272 2°54.653 348.9 10.7 340 7.3
2009-12-18 07:57:45 51°15.288 2°54.643 348.5 10.6 342 7.6
2009-12-18 07:57:50 51°15.302 2°54.636 348.9 10.4 340 7.5
2009-12-18 07:57:55 51°15.315 2°54.627 348.3 10.4 340 7.6
2009-12-18 07:57:59 51°15.327 2°54.621 348.2 10.5 339 5.7
2009-12-18 07:58:05 51°15.343 2°54.61 347.5 10.6 338 5.5
2009-12-18 07:58:10 51°15.357 2°54.602 347.3 10.6 340 7.9
2009-12-18 07:58:15 51°15.371 2°54.594 347.9 10.7 340 7.7
2009-12-18 07:58:20 51°15.384 2°54.586 348 10.4 339 7.1
2009-12-18 07:58:25 51°15.398 2°54.578 347.7 10.2 338 7.5
2009-12-18 07:58:30 51°15.411 2°54.57 347.9 10.4 339 8.1
2009-12-18 07:58:35 51°15.425 2°54.561 347.3 10.5 338 7.7
2009-12-18 07:58:40 51°15.438 2°54.553 347.7 10.4 339 7.8
2009-12-18 07:58:45 51°15.451 2°54.544 347.9 10.3 339 8.2
2009-12-18 07:58:50 51°15.465 2°54.536 347.4 10.4 338 8.5
2009-12-18 07:58:55 51°15.478 2°54.528 348 10.2 341 7.9
2009-12-18 07:58:59 51°15.489 2°54.522 350.5 10.2 342 8.5
2009-12-18 07:59:05 51°15.505 2°54.514 350.7 10.1 343 8.9
2009-12-18 07:59:10 51°15.518 2°54.508 351.6 9.9 344 8.1
2009-12-18 07:59:15 51°15.532 2°54.502 352.4 10 343 8
2009-12-18 07:59:19 51°15.542 2°54.497 352.6 10.1 344 8.5
2009-12-18 07:59:25 51°15.558 2°54.489 352.3 10.2 344 8.8
2009-12-18 07:59:30 51°15.572 2°54.483 352.6 10.3 346 9.2
2009-12-18 07:59:35 51°15.585 2°54.478 353.6 10.1 346 9.3
2009-12-18 07:59:39 51°15.596 2°54.473 353.4 10.1 345 9.3
2009-12-18 07:59:45 51°15.612 2°54.466 353.7 10.1 344 9
2009-12-18 07:59:50 51°15.626 2°54.46 353.7 10.2 345 9.1
2009-12-18 07:59:55 51°15.64 2°54.455 353.6 10.2 346 8.9
2009-12-18 07:59:59 51°15.651 2°54.45 354.3 10.3 346 8.6
2009-12-18 08:00:05 51°15.668 2°54.444 354.3 10.4 346 8.9
2009-12-18 08:00:10 51°15.681 2°54.438 354.1 10.4 345 9
2009-12-18 08:00:15 51°15.695 2°54.432 353.7 10.5 345 8.9
2009-12-18 08:00:19 51°15.707 2°54.428 353.7 10.4 346 8.8
2009-12-18 08:00:25 51°15.723 2°54.42 353.9 10.4 345 9
2009-12-18 08:00:30 51°15.737 2°54.414 353.6 10.4 345 9.1
2009-12-18 08:00:35 51°15.751 2°54.409 353.9 10.4 347 9.5
2009-12-18 08:00:39 51°15.762 2°54.404 354.3 10.5 347 9.9
2009-12-18 08:00:45 51°15.779 2°54.398 354.2 10.4 346 9.8
2009-12-18 08:00:50 51°15.793 2°54.393 354.6 10.2 346 8.8
2009-12-18 08:00:55 51°15.807 2°54.387 354.3 10.2 346 8.9
2009-12-18 08:00:59 51°15.818 2°54.383 353.9 10.3 346 9.4
2009-12-18 08:01:05 51°15.835 2°54.377 354.4 10.4 348 9.8
2009-12-18 08:01:10 51°15.849 2°54.371 354.3 10.5 347 9.4
2009-12-18 08:01:15 51°15.863 2°54.366 354.2 10.5 347 9.8
2009-12-18 08:01:19 51°15.874 2°54.362 354.3 10.5 347 9.8
2009-12-18 08:01:25 51°15.891 2°54.355 353.6 10.5 347 10.1
2009-12-18 08:01:30 51°15.905 2°54.351 354.2 10.5 347 10.4
2009-12-18 08:01:35 51°15.919 2°54.345 354.3 10.3 346 9.7
2009-12-18 08:01:39 51°15.93 2°54.341 354.3 10.3 347 9.7
2009-12-18 08:01:45 51°15.947 2°54.334 354 10.3 347 9.7
2009-12-18 08:01:50 51°15.961 2°54.33 354.1 10.5 348 9.7
2009-12-18 08:01:55 51°15.975 2°54.325 354.9 10.6 348 10.1
2009-12-18 08:01:59 51°15.987 2°54.32 353.7 10.5 346 10.1
2009-12-18 08:02:05 51°16.004 2°54.314 354.2 10.5 347 9.6
2009-12-18 08:02:10 51°16.018 2°54.309 354.1 10.3 347 9.5
2009-12-18 08:02:15 51°16.031 2°54.304 354.7 10.2 347 10
2009-12-18 08:02:19 51°16.043 2°54.299 354.3 10.1 344 10.1
2009-12-18 08:02:25 51°16.058 2°54.293 354.3 9.8 346 10.1
2009-12-18 08:02:30 51°16.071 2°54.287 354.5 9.6 345 10
2009-12-18 08:02:35 51°16.084 2°54.282 354.1 9.5 346 10.2
2009-12-18 08:02:39 51°16.095 2°54.278 354.1 9.3 346 10
2009-12-18 08:02:45 51°16.109 2°54.273 354.1 8.9 347 10
2009-12-18 08:02:50 51°16.12 2°54.268 354.9 8 345 9.8
2009-12-18 08:02:55 51°16.13 2°54.264 355.2 7.5 346 9.9
2009-12-18 08:02:59 51°16.138 2°54.261 355.6 7 343 9.8
2009-12-18 08:03:05 51°16.149 2°54.256 355.7 6.6 343 10.3
2009-12-18 08:03:10 51°16.157 2°54.252 355.8 6.1 343 10.3
2009-12-18 08:03:15 51°16.165 2°54.248 356 5.8 343 10
2009-12-18 08:03:19 51°16.17 2°54.245 356.6 5.3 346 10.6
2009-12-18 08:03:25 51°16.179 2°54.241 357.7 4.9 342 10.1
2009-12-18 08:03:30 51°16.185 2°54.239 359.8 4.4 346 10.1
2009-12-18 08:03:35 51°16.19 2°54.238 3.7 4 352 10.4
2009-12-18 08:03:39 51°16.194 2°54.236 7.3 3.6 351 10.8
2009-12-18 08:03:45 51°16.199 2°54.235 10.6 3.2 354 10.7
2009-12-18 08:03:50 51°16.203 2°54.234 13.9 2.9 354 10.6
2009-12-18 08:03:55 51°16.207 2°54.234 16.8 2.6 357 10.4
2009-12-18 08:03:59 51°16.209 2°54.234 19.9 2.4 356 10.3
2009-12-18 08:04:05 51°16.213 2°54.233 23.2 2 354 10.2
2009-12-18 08:04:10 51°16.215 2°54.233 26.2 1.8 355 10.2
2009-12-18 08:04:15 51°16.218 2°54.233 29 1.6 2 10.8
2009-12-18 08:04:19 51°16.22 2°54.233 30.8 1.7 359 10.5
2009-12-18 08:04:25 51°16.222 2°54.234 33.7 1.5 14 10.7
2009-12-18 08:04:30 51°16.224 2°54.234 38.6 1.5 16 10.2
2009-12-18 08:04:35 51°16.225 2°54.236 43.6 1.2 32 10.6
2009-12-18 08:04:39 51°16.226 2°54.237 47.4 1 56 10.7
2009-12-18 08:04:45 51°16.227 2°54.239 51.1 1 24 10.1
2009-12-18 08:04:50 51°16.227 2°54.24 55.2 0.9 79 10.7
2009-12-18 08:04:55 51°16.228 2°54.241 58.2 0.7 38 10.3
2009-12-18 08:04:59 51°16.228 2°54.243 62.2 0.8 97 10.2
2009-12-18 08:05:05 51°16.228 2°54.244 65.4 0.6 44 10.1
2009-12-18 08:05:10 51°16.227 2°54.246 68.3 1 141 10.7
2009-12-18 08:05:15 51°16.228 2°54.246 71.3 0.2 64 10.5
2009-12-18 08:05:19 51°16.227 2°54.246 73 0.7 155 10.4
2009-12-18 08:05:25 51°16.226 2°54.247 74.1 0.4 177 10.2
2009-12-18 08:05:30 51°16.224 2°54.247 75.6 0.8 177 10.6
2009-12-18 08:05:35 51°16.224 2°54.246 75.9 0.7 191 10.5
2009-12-18 08:05:39 51°16.223 2°54.246 77.3 0.7 193 10.6
2009-12-18 08:05:45 51°16.222 2°54.246 77.9 1.1 189 10.7
2009-12-18 08:05:50 51°16.221 2°54.245 79.3 0.8 204 10.2
2009-12-18 08:05:55 51°16.22 2°54.244 79.9 1 206 10.4
2009-12-18 08:05:59 51°16.218 2°54.243 81.1 1 212 9.9
2009-12-18 08:06:05 51°16.217 2°54.242 81.9 1.3 204 9.9
2009-12-18 08:06:10 51°16.215 2°54.241 83.6 1 216 10
2009-12-18 08:06:15 51°16.214 2°54.239 83 1.3 206 10.4
2009-12-18 08:06:19 51°16.213 2°54.238 84 1.3 207 10.3
2009-12-18 08:06:25 51°16.211 2°54.236 85.1 1.3 210 10.3
2009-12-18 08:06:30 51°16.209 2°54.234 84.3 1.2 226 10
2009-12-18 08:06:35 51°16.207 2°54.232 84.7 1.6 212 10.5
2009-12-18 08:06:39 51°16.207 2°54.231 84.9 1.3 226 10.2
2009-12-18 08:06:45 51°16.205 2°54.228 85.1 1.5 221 10
2009-12-18 08:06:50 51°16.203 2°54.226 84.9 1.5 227 10.2
2009-12-18 08:06:55 51°16.201 2°54.224 85 1.7 217 10.4
2009-12-18 08:06:59 51°16.201 2°54.221 85.3 1.6 224 10.8
2009-12-18 08:07:05 51°16.198 2°54.218 85.2 1.8 219 10.6
2009-12-18 08:07:10 51°16.197 2°54.216 85.7 1.7 225 10.3
2009-12-18 08:07:15 51°16.195 2°54.213 86 1.7 226 10.2
2009-12-18 08:07:19 51°16.194 2°54.211 86.1 2 220 10.6
2009-12-18 08:07:25 51°16.192 2°54.207 86.9 1.7 233 10.1
2009-12-18 08:07:30 51°16.19 2°54.204 87.8 2.1 223 10.3
2009-12-18 08:07:35 51°16.189 2°54.201 88.6 1.6 241 9.8
2009-12-18 08:07:39 51°16.187 2°54.198 89.4 1.9 229 10.1
2009-12-18 08:07:45 51°16.185 2°54.195 89.4 2 229 10.4
2009-12-18 08:07:50 51°16.183 2°54.191 90.5 2 231 10.3
2009-12-18 08:07:55 51°16.182 2°54.188 91.5 1.9 233 10.2
2009-12-18 08:07:59 51°16.18 2°54.185 92.8 1.9 236 10.3
2009-12-18 08:08:05 51°16.178 2°54.18 93.7 2.2 229 10.7
2009-12-18 08:08:10 51°16.176 2°54.176 95.2 2.1 234 10.5
2009-12-18 08:08:15 51°16.174 2°54.173 96.6 2.2 232 10.4
2009-12-18 08:08:19 51°16.173 2°54.169 98.2 2.1 234 10.2
2009-12-18 08:08:25 51°16.171 2°54.165 98.9 2 240 10.1
2009-12-18 08:08:30 51°16.169 2°54.16 100.2 2.2 235 10.8
2009-12-18 08:08:35 51°16.167 2°54.156 101.5 2.3 235 10.5
2009-12-18 08:08:39 51°16.166 2°54.153 104.6 2.4 233 10.6
2009-12-18 08:08:45 51°16.164 2°54.148 106.1 2.3 237 10.6
2009-12-18 08:08:50 51°16.162 2°54.143 108.2 2.4 238 10.5
2009-12-18 08:08:55 51°16.161 2°54.139 110.3 2.2 241 10.4
2009-12-18 08:08:59 51°16.159 2°54.136 112.8 2.3 238 10.1
2009-12-18 08:09:05 51°16.157 2°54.13 115.3 2.3 240 9.9
2009-12-18 08:09:10 51°16.155 2°54.125 117.6 2.5 238 10.6
2009-12-18 08:09:15 51°16.154 2°54.121 120.4 2.4 241 10.6
2009-12-18 08:09:19 51°16.152 2°54.117 123.9 2.3 240 10.2
2009-12-18 08:09:25 51°16.151 2°54.112 126.6 2.1 239 10
2009-12-18 08:09:30 51°16.149 2°54.108 128.7 2.2 241 10.3
2009-12-18 08:09:35 51°16.148 2°54.103 130.7 2.3 242 10.4
2009-12-18 08:09:39 51°16.147 2°54.1 132.9 2.5 239 10.2
2009-12-18 08:09:45 51°16.145 2°54.095 136.2 2 241 10.2
2009-12-18 08:09:50 51°16.143 2°54.091 138 2.2 240 10.7
2009-12-18 08:09:55 51°16.142 2°54.086 139.7 2.3 242 10.3
2009-12-18 08:09:59 51°16.141 2°54.083 142.4 2.2 241 10.6
2009-12-18 08:10:05 51°16.139 2°54.078 145.2 2.2 239 10.4
2009-12-18 08:10:10 51°16.137 2°54.073 148.3 2.2 234 10.7
2009-12-18 08:10:15 51°16.135 2°54.07 150.9 2.1 231 10.3
2009-12-18 08:10:19 51°16.134 2°54.066 155 2.3 228 10.9
2009-12-18 08:10:25 51°16.131 2°54.063 157.8 2.3 223 10.5
2009-12-18 08:10:30 51°16.128 2°54.059 161.9 2.4 219 10.3
2009-12-18 08:10:35 51°16.126 2°54.056 165.1 2.4 216 10.9
2009-12-18 08:10:39 51°16.123 2°54.052 169.3 2.7 216 10.5
2009-12-18 08:10:45 51°16.119 2°54.049 172.2 3 214 10.4
2009-12-18 08:10:50 51°16.115 2°54.045 176.8 3.1 208 10.5
2009-12-18 08:10:55 51°16.111 2°54.041 180.8 3.4 212 10.4
2009-12-18 08:10:59 51°16.108 2°54.038 185.9 3.6 210 10.4
2009-12-18 08:11:05 51°16.102 2°54.033 190.2 3.7 210 10.6
2009-12-18 08:11:10 51°16.098 2°54.028 195.3 4.1 211 10.6
2009-12-18 08:11:15 51°16.093 2°54.023 200 4.1 219 10.4
2009-12-18 08:11:19 51°16.09 2°54.018 205.8 4.2 214 10.7
2009-12-18 08:11:25 51°16.084 2°54.009 209.3 4.6 226 10.2
2009-12-18 08:11:30 51°16.079 2°54.003 215.1 4.5 225 10.4
2009-12-18 08:11:35 51°16.075 2°53.995 220.2 4.7 224 11.1
2009-12-18 08:11:39 51°16.072 2°53.988 226.7 4.8 235 10
2009-12-18 08:11:45 51°16.067 2°53.979 230.5 4.9 237 10.6
2009-12-18 08:11:50 51°16.064 2°53.969 236.9 4.9 237 10.4
2009-12-18 08:11:55 51°16.061 2°53.959 244.6 4.8 244 10.3
2009-12-18 08:11:59 51°16.059 2°53.951 250.2 4.9 247 10.6
2009-12-18 08:12:05 51°16.056 2°53.939 256.6 4.9 251 10.4
2009-12-18 08:12:10 51°16.055 2°53.929 261.4 4.7 258 10
2009-12-18 08:12:15 51°16.054 2°53.918 268.8 4.8 262 9.8
2009-12-18 08:12:19 51°16.053 2°53.91 274.3 4.6 266 10.6
2009-12-18 08:12:25 51°16.053 2°53.898 280.5 4.5 271 10.5
2009-12-18 08:12:30 51°16.054 2°53.888 287.7 4.4 276 10.4
2009-12-18 08:12:35 51°16.054 2°53.878 292.6 4.6 276 10.6
2009-12-18 08:12:39 51°16.055 2°53.87 300 4.4 283 10.6
2009-12-18 08:12:45 51°16.058 2°53.859 306.5 4.5 289 10.4
2009-12-18 08:12:50 51°16.06 2°53.85 311.5 4.7 294 10.7
2009-12-18 08:12:55 51°16.063 2°53.841 316.6 4.7 297 10.6
2009-12-18 08:13:00 51°16.066 2°53.832 320.9 4.7 300 10.4
2009-12-18 08:13:05 51°16.071 2°53.823 326.6 4.7 309 10.1
2009-12-18 08:13:10 51°16.075 2°53.816 331.6 5 314 10.4
2009-12-18 08:13:15 51°16.081 2°53.808 336.1 5.2 318 10.4
2009-12-18 08:13:20 51°16.087 2°53.8 339.5 5.5 322 10.4
2009-12-18 08:13:25 51°16.093 2°53.793 341.3 5.9 323 10.5
2009-12-18 08:13:30 51°16.1 2°53.784 340.8 6.4 321 10.7
2009-12-18 08:13:35 51°16.107 2°53.775 339 6.5 321 10.7
2009-12-18 08:13:39 51°16.113 2°53.767 336.1 7.1 317 10.7
2009-12-18 08:13:45 51°16.122 2°53.753 331.9 7.3 313 11.1
2009-12-18 08:13:50 51°16.13 2°53.741 329.5 7.8 315 10.7
2009-12-18 08:13:55 51°16.137 2°53.727 327 8.1 314 10.6
2009-12-18 08:13:59 51°16.144 2°53.716 325 8.9 312 10.8
2009-12-18 08:14:05 51°16.154 2°53.698 323.6 9.3 310 10.9
2009-12-18 08:14:10 51°16.162 2°53.682 322 9.4 312 10.6
2009-12-18 08:14:15 51°16.171 2°53.665 321.5 9.7 311 10.1
2009-12-18 08:14:19 51°16.178 2°53.652 322.1 9.9 311 10.3
2009-12-18 08:14:25 51°16.19 2°53.632 321.3 10.2 312 10.4
2009-12-18 08:14:30 51°16.199 2°53.615 321.3 10.4 312 10.8
2009-12-18 08:14:35 51°16.21 2°53.6 323.5 10.3 316 11.2
2009-12-18 08:14:39 51°16.218 2°53.586 324.6 10.7 314 11.1
2009-12-18 08:14:45 51°16.23 2°53.567 325 10.5 318 11.1
2009-12-18 08:14:50 51°16.242 2°53.552 329 10.5 319 11
2009-12-18 08:14:55 51°16.252 2°53.536 329.5 10.6 320 10.9
2009-12-18 08:14:59 51°16.262 2°53.525 331.1 10.5 321 10.4
2009-12-18 08:15:05 51°16.275 2°53.508 332.3 10.5 323 10.8
2009-12-18 08:15:10 51°16.287 2°53.495 333.8 10.6 325 11.2
2009-12-18 08:15:15 51°16.299 2°53.482 334.7 10.5 325 11.6
2009-12-18 08:15:19 51°16.308 2°53.472 335.4 10.3 327 11.7
2009-12-18 08:15:25 51°16.322 2°53.456 335.4 10.3 323 10.8
2009-12-18 08:15:30 51°16.333 2°53.443 334.5 10.3 325 10.8
2009-12-18 08:15:35 51°16.345 2°53.43 335.1 10.3 324 10.5
2009-12-18 08:15:39 51°16.355 2°53.418 334.4 10.3 324 10.9
2009-12-18 08:15:45 51°16.369 2°53.402 333.8 10.4 324 11
2009-12-18 08:15:50 51°16.38 2°53.388 333.3 10.5 322 10.8
2009-12-18 08:15:55 51°16.392 2°53.373 331.6 10.7 322 10.7
2009-12-18 08:15:59 51°16.401 2°53.362 331.4 10.6 321 10.9
2009-12-18 08:16:05 51°16.415 2°53.344 330.7 10.5 321 11
2009-12-18 08:16:10 51°16.427 2°53.33 330 10.7 322 10.8
2009-12-18 08:16:15 51°16.438 2°53.314 329 10.7 320 10.6
2009-12-18 08:16:19 51°16.447 2°53.302 328.9 10.8 321 11.2
2009-12-18 08:16:25 51°16.461 2°53.284 328.2 10.8 320 11.2
2009-12-18 08:16:30 51°16.473 2°53.269 328.7 10.8 321 10.8
2009-12-18 08:16:35 51°16.484 2°53.253 328.7 10.8 319 10.6
2009-12-18 08:16:39 51°16.494 2°53.241 328.6 10.8 320 10.4
2009-12-18 08:16:45 51°16.508 2°53.222 327.8 10.7 321 10.3
2009-12-18 08:16:50 51°16.519 2°53.208 328.8 10.6 320 10.3
2009-12-18 08:16:55 51°16.53 2°53.193 328.3 10.5 320 10.5
2009-12-18 08:16:59 51°16.54 2°53.181 328.2 10.7 320 10.6
2009-12-18 08:17:05 51°16.553 2°53.162 328 10.7 321 10.6
2009-12-18 08:17:10 51°16.565 2°53.148 328.6 10.7 322 10.6
2009-12-18 08:17:15 51°16.576 2°53.132 328.2 10.7 319 11
2009-12-18 08:17:19 51°16.586 2°53.121 328.4 10.6 323 10.7
2009-12-18 08:17:25 51°16.599 2°53.103 328.5 10.8 320 11.3
2009-12-18 08:17:30 51°16.611 2°53.088 328.6 10.7 321 10.9
2009-12-18 08:17:35 51°16.622 2°53.073 328.2 10.7 320 10.8
2009-12-18 08:17:39 51°16.632 2°53.062 328.2 10.8 321 10.9
2009-12-18 08:17:45 51°16.645 2°53.043 327.8 10.5 319 10.1
2009-12-18 08:17:50 51°16.656 2°53.029 328 10.5 322 10.4
2009-12-18 08:17:55 51°16.667 2°53.014 328.3 10.6 320 10.5
2009-12-18 08:17:59 51°16.677 2°53.002 328.3 10.6 322 10.5
2009-12-18 08:18:05 51°16.69 2°52.985 328.5 10.5 321 10.3
2009-12-18 08:18:10 51°16.701 2°52.969 328.2 10.8 320 11.3
2009-12-18 08:18:15 51°16.713 2°52.955 328.5 10.4 322 10.5
2009-12-18 08:18:19 51°16.722 2°52.943 328.4 10.4 320 9.9
2009-12-18 08:18:25 51°16.735 2°52.926 328.5 10.5 323 9.8
2009-12-18 08:18:30 51°16.747 2°52.912 329.5 10.3 321 9.5
2009-12-18 08:18:35 51°16.758 2°52.897 328.2 10.3 319 8.8
2009-12-18 08:18:39 51°16.767 2°52.886 328.7 10.3 323 9
2009-12-18 08:18:45 51°16.78 2°52.869 328.6 10.5 321 9.1
2009-12-18 08:18:50 51°16.791 2°52.855 328.4 10.5 321 9.2
2009-12-18 08:18:55 51°16.803 2°52.84 328.9 10.4 321 8.9
2009-12-18 08:18:59 51°16.812 2°52.829 328.7 10.3 321 8.3
2009-12-18 08:19:05 51°16.825 2°52.812 328.3 10.4 321 8.2
2009-12-18 08:19:10 51°16.836 2°52.797 328.5 10.4 322 8.4
2009-12-18 08:19:15 51°16.847 2°52.782 329.2 10.4 320 8.7
2009-12-18 08:19:20 51°16.858 2°52.768 328.2 10.3 321 8
2009-12-18 08:19:25 51°16.869 2°52.754 328.2 10.2 320 8.2
2009-12-18 08:19:30 51°16.88 2°52.739 327.7 10.2 321 8.4
2009-12-18 08:19:35 51°16.891 2°52.724 328.1 10.3 319 8.7
2009-12-18 08:19:40 51°16.902 2°52.71 329.6 10.2 323 9.1
2009-12-18 08:19:45 51°16.913 2°52.695 328.7 10.2 320 8
2009-12-18 08:19:50 51°16.925 2°52.682 328.5 10.2 323 8.2
2009-12-18 08:19:55 51°16.936 2°52.668 329.5 10.2 322 8.2
2009-12-18 08:19:59 51°16.945 2°52.658 330.9 10.1 326 8.3
2009-12-18 08:20:05 51°16.959 2°52.641 331.8 10.2 322 8.9
2009-12-18 08:20:10 51°16.971 2°52.629 332.7 10.1 328 8.6
2009-12-18 08:20:15 51°16.982 2°52.616 333.2 10.3 325 8.4
2009-12-18 08:20:19 51°16.992 2°52.606 333.9 10.3 326 8.4
2009-12-18 08:20:25 51°17.006 2°52.591 333.9 10 326 8.6
2009-12-18 08:20:30 51°17.017 2°52.579 334 10.2 326 8.9
2009-12-18 08:20:35 51°17.029 2°52.566 334.3 10 325 9.3
2009-12-18 08:20:39 51°17.038 2°52.556 333.4 9.9 326 9.4
2009-12-18 08:20:45 51°17.052 2°52.541 333.9 10 327 8.9
2009-12-18 08:20:50 51°17.063 2°52.53 335.4 9.8 327 8.1
2009-12-18 08:20:55 51°17.074 2°52.518 334.2 9.6 326 7.9
2009-12-18 08:20:59 51°17.083 2°52.508 334.2 9.7 326 9.1
2009-12-18 08:21:05 51°17.096 2°52.493 333.7 9.7 326 9
2009-12-18 08:21:10 51°17.107 2°52.481 334.5 9.7 325 8.5
2009-12-18 08:21:15 51°17.118 2°52.47 334.2 9.7 327 8.3
2009-12-18 08:21:19 51°17.127 2°52.46 334.7 9.6 326 8
2009-12-18 08:21:25 51°17.14 2°52.446 334 9.6 326 8.5
2009-12-18 08:21:30 51°17.151 2°52.434 334.2 9.8 326 9.3
2009-12-18 08:21:35 51°17.162 2°52.421 333.9 9.8 325 9.2
2009-12-18 08:21:39 51°17.171 2°52.411 334 9.8 327 9
2009-12-18 08:21:45 51°17.185 2°52.397 334.7 9.9 327 9
2009-12-18 08:21:50 51°17.196 2°52.385 334.7 10.1 326 9.3
2009-12-18 08:21:55 51°17.208 2°52.372 334.7 10.2 327 9.8
2009-12-18 08:21:59 51°17.218 2°52.363 335.3 10.1 327 9.1
2009-12-18 08:22:05 51°17.232 2°52.348 334.2 10 327 9.3
2009-12-18 08:22:10 51°17.244 2°52.336 334.8 9.9 327 9.6
2009-12-18 08:22:15 51°17.255 2°52.324 334.3 10 326 10.4
2009-12-18 08:22:19 51°17.264 2°52.314 334.6 10.1 327 10.2
2009-12-18 08:22:25 51°17.278 2°52.299 334.4 9.4 324 -999
2009-12-18 08:22:30 51°17.288 2°52.286 333.2 9 323 -999
2009-12-18 08:22:36 51°17.3 2°52.272 333 9.3 324 -999
2009-12-18 08:22:41 51°17.311 2°52.261 334.1 9.3 326 -999
2009-12-18 08:22:46 51°17.322 2°52.249 334.7 9.6 324 10.2
2009-12-18 08:22:51 51°17.332 2°52.236 333.9 9.4 326 9.8
2009-12-18 08:22:56 51°17.344 2°52.224 334.2 9.7 325 10.9
2009-12-18 08:23:00 51°17.352 2°52.214 333.8 9.7 325 10.8
2009-12-18 08:23:06 51°17.366 2°52.2 334.6 9.7 326 10.6
2009-12-18 08:23:10 51°17.374 2°52.19 334.2 9.8 326 11
2009-12-18 08:23:15 51°17.386 2°52.179 335 9.7 327 10.8
2009-12-18 08:23:20 51°17.397 2°52.166 334.2 9.9 325 10.5
2009-12-18 08:23:25 51°17.409 2°52.154 334.6 9.9 327 10.4
2009-12-18 08:23:30 51°17.42 2°52.142 334.8 9.9 326 10.4
2009-12-18 08:23:35 51°17.432 2°52.13 335 10.2 326 10
2009-12-18 08:23:40 51°17.444 2°52.118 334.6 10 328 10.6
2009-12-18 08:23:45 51°17.455 2°52.105 334.5 10.2 326 10.6
2009-12-18 08:23:50 51°17.467 2°52.093 335.1 10.2 327 10.5
2009-12-18 08:23:55 51°17.479 2°52.081 334.9 10.3 326 10.3
2009-12-18 08:23:59 51°17.488 2°52.07 334.4 10.4 326 10.6
2009-12-18 08:24:05 51°17.503 2°52.056 334.9 10.2 328 10.5
2009-12-18 08:24:10 51°17.514 2°52.043 334.9 10.2 326 10
2009-12-18 08:24:15 51°17.526 2°52.032 334.5 10.1 327 10.2
2009-12-18 08:24:19 51°17.535 2°52.021 334.1 10.2 324 9.9
2009-12-18 08:24:25 51°17.549 2°52.006 333.8 10 327 9.5
2009-12-18 08:24:30 51°17.561 2°51.994 334.7 10.2 326 10.2
2009-12-18 08:24:35 51°17.573 2°51.981 334.7 10.1 326 9.9
2009-12-18 08:24:39 51°17.582 2°51.972 335.6 10.2 326 9.9
2009-12-18 08:24:45 51°17.596 2°51.956 334.6 10.2 326 9.3
2009-12-18 08:24:50 51°17.607 2°51.944 334.5 10.2 327 9.4
2009-12-18 08:24:55 51°17.619 2°51.932 334.4 10.2 326 10.2
2009-12-18 08:24:59 51°17.628 2°51.921 334.4 10.1 325 9.6
2009-12-18 08:25:05 51°17.642 2°51.906 334 9.8 326 9.4
2009-12-18 08:25:10 51°17.653 2°51.893 333.7 9.9 324 9.7
2009-12-18 08:25:15 51°17.665 2°51.881 334.7 9.9 326 8.8
2009-12-18 08:25:19 51°17.673 2°51.87 333.2 9.7 325 8.5
2009-12-18 08:25:25 51°17.687 2°51.856 333.6 9.7 326 8.8
2009-12-18 08:25:30 51°17.698 2°51.843 333.7 9.8 324 8.5
2009-12-18 08:25:35 51°17.709 2°51.831 333.2 9.8 326 8.4
2009-12-18 08:25:39 51°17.718 2°51.82 333 9.9 324 9.5
2009-12-18 08:25:45 51°17.732 2°51.806 334 10 326 9.4
2009-12-18 08:25:50 51°17.743 2°51.793 334 10 326 8.7
2009-12-18 08:25:55 51°17.755 2°51.781 334 10.1 326 8.8
2009-12-18 08:25:59 51°17.764 2°51.77 333.2 10.3 325 8.6
2009-12-18 08:26:05 51°17.779 2°51.756 334.4 10.4 328 9
2009-12-18 08:26:10 51°17.79 2°51.743 334.7 10.4 326 9.4
2009-12-18 08:26:15 51°17.802 2°51.731 335.1 10.3 327 9.6
2009-12-18 08:26:19 51°17.812 2°51.72 334.6 10.3 326 9.1
2009-12-18 08:26:25 51°17.826 2°51.706 334.8 10.3 328 9.5
2009-12-18 08:26:30 51°17.838 2°51.694 335.8 10.2 326 9
2009-12-18 08:26:35 51°17.85 2°51.681 335.1 10.2 328 9.2
2009-12-18 08:26:39 51°17.86 2°51.671 335.4 10.3 326 8.6
2009-12-18 08:26:45 51°17.874 2°51.656 334.8 10.5 326 9.4
2009-12-18 08:26:50 51°17.887 2°51.644 334.4 10.4 329 9.8
2009-12-18 08:26:55 51°17.898 2°51.631 334.6 10.3 325 9
2009-12-18 08:27:00 51°17.909 2°51.619 334.5 10 326 9
2009-12-18 08:27:05 51°17.921 2°51.606 334.1 10.1 326 9.5
2009-12-18 08:27:10 51°17.933 2°51.594 334.4 10.2 327 9.6
2009-12-18 08:27:15 51°17.945 2°51.582 334.6 10.2 327 9.9
2009-12-18 08:27:19 51°17.954 2°51.57 333.9 10.4 324 9.7
2009-12-18 08:27:25 51°17.968 2°51.555 334.6 10.4 327 10.2
2009-12-18 08:27:30 51°17.98 2°51.542 334 10.3 325 10
2009-12-18 08:27:35 51°17.992 2°51.53 334.3 10.3 326 10.1
2009-12-18 08:27:40 51°18.003 2°51.517 335 10.3 325 10.1
2009-12-18 08:27:45 51°18.015 2°51.504 334 10.4 325 10.5
2009-12-18 08:27:50 51°18.027 2°51.491 333.6 10.5 326 10.6
2009-12-18 08:27:55 51°18.039 2°51.478 334.1 10.4 326 10.2
2009-12-18 08:28:00 51°18.051 2°51.465 334.2 10.3 325 10.2
2009-12-18 08:28:05 51°18.063 2°51.453 334 10.4 325 10.7
2009-12-18 08:28:10 51°18.075 2°51.44 334 10.4 326 11.9
2009-12-18 08:28:15 51°18.086 2°51.427 334.3 10 326 -999
2009-12-18 08:28:20 51°18.097 2°51.414 334.1 9.9 324 9.9
2009-12-18 08:28:25 51°18.108 2°51.402 334 10 325 11.1
2009-12-18 08:28:30 51°18.12 2°51.388 333.5 10 323 11.6
2009-12-18 08:28:35 51°18.131 2°51.377 334.6 9.9 327 11.1
2009-12-18 08:28:39 51°18.14 2°51.366 334.2 10.1 325 11.4
2009-12-18 08:28:45 51°18.154 2°51.351 334.7 10.2 326 11.6
2009-12-18 08:28:50 51°18.166 2°51.339 334.4 10.1 326 11.4
2009-12-18 08:28:55 51°18.178 2°51.326 334.9 10.1 327 11.4
2009-12-18 08:29:00 51°18.19 2°51.314 334.5 10.1 325 11.1
2009-12-18 08:29:05 51°18.201 2°51.301 334.1 10.2 326 11.5
2009-12-18 08:29:10 51°18.213 2°51.288 334.4 10.5 325 11.6
2009-12-18 08:29:15 51°18.225 2°51.275 334.5 10.3 327 11.7
2009-12-18 08:29:19 51°18.235 2°51.265 335 10.4 325 12
2009-12-18 08:29:25 51°18.249 2°51.25 334.4 9.8 327 11.2
2009-12-18 08:29:30 51°18.259 2°51.238 334.4 9.4 324 11.2
2009-12-18 08:29:35 51°18.269 2°51.225 333.6 9 323 12.4
2009-12-18 08:29:39 51°18.278 2°51.216 334.1 8.6 325 12.6
2009-12-18 08:29:45 51°18.288 2°51.203 334.3 8.4 322 12.2
2009-12-18 08:29:49 51°18.296 2°51.194 334 8.2 324 12
2009-12-18 08:29:55 51°18.306 2°51.182 335.1 8 323 11.8
2009-12-18 08:30:00 51°18.315 2°51.171 335.3 7.8 324 12.3
2009-12-18 08:30:05 51°18.324 2°51.161 335.1 7.7 324 12.3
2009-12-18 08:30:10 51°18.332 2°51.15 334.9 7.8 322 12.7
2009-12-18 08:30:15 51°18.341 2°51.14 334.7 7.5 323 12.7
2009-12-18 08:30:20 51°18.349 2°51.13 335.4 7.5 323 12.8
2009-12-18 08:30:25 51°18.357 2°51.12 335.8 7.5 323 13
2009-12-18 08:30:30 51°18.365 2°51.109 335.6 7.6 320 13.2
2009-12-18 08:30:35 51°18.373 2°51.1 335.4 7.3 323 13.2
2009-12-18 08:30:40 51°18.381 2°51.09 335.4 7.3 321 13.1
2009-12-18 08:30:45 51°18.389 2°51.08 335.7 7.3 324 13
2009-12-18 08:30:50 51°18.397 2°51.07 335.4 7.3 323 12.3
2009-12-18 08:30:55 51°18.405 2°51.06 335.5 7.2 321 12.9
2009-12-18 08:30:59 51°18.411 2°51.052 335.1 7.3 321 13.2
2009-12-18 08:31:05 51°18.421 2°51.04 335 7.5 321 13.2
2009-12-18 08:31:10 51°18.429 2°51.03 334.7 7.3 323 13.3
2009-12-18 08:31:15 51°18.437 2°51.02 336 7.3 322 12.8
2009-12-18 08:31:20 51°18.445 2°51.011 336.6 7.2 324 12.3
2009-12-18 08:31:25 51°18.453 2°51.002 337.5 7.1 324 12.7
2009-12-18 08:31:30 51°18.461 2°50.993 338.3 6.8 327 12.5
2009-12-18 08:31:35 51°18.469 2°50.986 339.5 6.4 328 12.8
2009-12-18 08:31:40 51°18.476 2°50.981 346 5.4 337 13.3
2009-12-18 08:31:45 51°18.483 2°50.977 352.1 4.7 341 12.7
2009-12-18 08:31:50 51°18.488 2°50.975 359.4 3.8 344 12.9
2009-12-18 08:31:55 51°18.492 2°50.973 5.9 3.2 347 13.4
2009-12-18 08:31:59 51°18.496 2°50.973 12 2.8 357 13.3
2009-12-18 08:32:05 51°18.5 2°50.973 18.9 2.7 -999 13.2
2009-12-18 08:32:10 51°18.503 2°50.975 23.1 2.3 10 13.3
2009-12-18 08:32:15 51°18.506 2°50.976 30.5 2.2 15 13.2
2009-12-18 08:32:19 51°18.508 2°50.978 36 1.9 26 12.5
2009-12-18 08:32:25 51°18.51 2°50.981 41 1.7 41 13
2009-12-18 08:32:30 51°18.512 2°50.983 46.4 1.7 45 13
2009-12-18 08:32:35 51°18.512 2°50.987 52 1.7 74 13.4
2009-12-18 08:32:39 51°18.513 2°50.989 59.3 1.6 72 13.2
2009-12-18 08:32:45 51°18.513 2°50.994 64.7 1.7 99 13.4
2009-12-18 08:32:50 51°18.513 2°50.997 69.8 1.7 95 13.1
2009-12-18 08:32:55 51°18.511 2°51.001 75.6 2 124 13.4
2009-12-18 08:32:59 51°18.51 2°51.004 81.3 1.7 119 13.1
2009-12-18 08:33:05 51°18.507 2°51.008 88.9 2.2 142 13.6
2009-12-18 08:33:10 51°18.506 2°51.01 92.8 2.1 153 13.5
2009-12-18 08:33:15 51°18.503 2°51.012 98.4 1.9 156 13
2009-12-18 08:33:19 51°18.501 2°51.013 102.1 1.8 163 12.8
2009-12-18 08:33:25 51°18.498 2°51.013 105.8 2 174 12.6
2009-12-18 08:33:30 51°18.495 2°51.013 107.3 2.3 186 13.2
2009-12-18 08:33:35 51°18.492 2°51.012 110.4 1.9 187 12.6
2009-12-18 08:33:39 51°18.489 2°51.011 112.3 2.4 196 12.7
2009-12-18 08:33:45 51°18.486 2°51.009 114.3 2.1 197 13
2009-12-18 08:33:50 51°18.483 2°51.007 117.8 2.2 201 13.1
2009-12-18 08:33:55 51°18.48 2°51.005 119.5 2.3 204 13.1
2009-12-18 08:34:00 51°18.477 2°51.003 120.9 2.2 206 12.9
2009-12-18 08:34:05 51°18.474 2°51.001 122.9 2.1 205 12.9
2009-12-18 08:34:10 51°18.471 2°50.999 123.8 2.4 209 13.4
2009-12-18 08:34:15 51°18.469 2°50.997 124.4 2.4 209 13.2
2009-12-18 08:34:20 51°18.466 2°50.994 127.1 2.1 210 12.8
2009-12-18 08:34:25 51°18.463 2°50.991 127.4 2.6 213 13.4
2009-12-18 08:34:30 51°18.461 2°50.989 129.1 2 211 12.7
2009-12-18 08:34:35 51°18.458 2°50.986 130.2 2.6 216 12.9
2009-12-18 08:34:40 51°18.456 2°50.983 132 2.2 216 12.9
2009-12-18 08:34:45 51°18.453 2°50.979 133.6 2.6 216 13.1
2009-12-18 08:34:50 51°18.451 2°50.977 135.1 1.9 213 12.7
2009-12-18 08:34:55 51°18.448 2°50.973 135.1 2.7 219 12.7
2009-12-18 08:35:00 51°18.445 2°50.97 137.1 2.1 218 13.1
2009-12-18 08:35:05 51°18.443 2°50.966 138.6 2.7 224 12.9
2009-12-18 08:35:10 51°18.44 2°50.963 140.4 2.2 215 12.6
2009-12-18 08:35:15 51°18.438 2°50.959 141.7 2.3 222 12.7
2009-12-18 08:35:19 51°18.436 2°50.956 142.3 2.6 225 13.4
2009-12-18 08:35:25 51°18.433 2°50.952 143.9 2.2 224 13.1
2009-12-18 08:35:30 51°18.43 2°50.948 145.6 2.7 226 13.1
2009-12-18 08:35:35 51°18.428 2°50.945 146.3 2.1 222 12.6
2009-12-18 08:35:39 51°18.426 2°50.942 147.4 2.4 226 13.2
2009-12-18 08:35:45 51°18.424 2°50.937 147.2 2.5 230 13
2009-12-18 08:35:50 51°18.422 2°50.934 149.4 2.2 227 13.1
2009-12-18 08:35:55 51°18.419 2°50.93 150.2 2.5 228 13.2
2009-12-18 08:35:59 51°18.417 2°50.927 151.4 2.2 227 12.9
2009-12-18 08:36:05 51°18.415 2°50.922 152.7 2.6 230 13.1
2009-12-18 08:36:10 51°18.413 2°50.919 153.6 2.4 231 12.9
2009-12-18 08:36:15 51°18.41 2°50.915 155.1 2.5 226 13
2009-12-18 08:36:20 51°18.408 2°50.911 155.8 2.3 229 12.7
2009-12-18 08:36:25 51°18.406 2°50.907 157.2 2.3 228 13.3
2009-12-18 08:36:30 51°18.404 2°50.903 157.8 2.5 230 12.8
2009-12-18 08:36:35 51°18.402 2°50.899 159.7 2.4 231 13.3
2009-12-18 08:36:40 51°18.4 2°50.895 160.7 2.3 230 12.9
2009-12-18 08:36:45 51°18.398 2°50.891 162 2.5 232 12.5
2009-12-18 08:36:50 51°18.396 2°50.887 163.5 2.4 230 12.9
2009-12-18 08:36:55 51°18.393 2°50.883 165.1 2.3 231 12.8
2009-12-18 08:37:00 51°18.391 2°50.878 165.7 2.5 232 13
2009-12-18 08:37:05 51°18.389 2°50.875 166.3 2.2 230 12.8
2009-12-18 08:37:10 51°18.387 2°50.871 167.1 2.5 229 12.9
2009-12-18 08:37:15 51°18.385 2°50.867 166.9 2.4 230 12.6
2009-12-18 08:37:19 51°18.383 2°50.863 167.7 2.4 227 13.2
2009-12-18 08:37:25 51°18.381 2°50.859 168.5 2.4 227 12.7
2009-12-18 08:37:30 51°18.378 2°50.854 169.8 2.5 229 13.1
2009-12-18 08:37:35 51°18.376 2°50.851 171 2.4 224 13.2
2009-12-18 08:37:39 51°18.374 2°50.847 173.3 2.5 222 12.5
2009-12-18 08:37:45 51°18.37 2°50.843 174.2 2.7 225 12.8
2009-12-18 08:37:50 51°18.367 2°50.84 175.9 2.6 218 13
2009-12-18 08:37:55 51°18.365 2°50.835 177.7 2.9 222 12.7
2009-12-18 08:37:59 51°18.361 2°50.832 180 3 215 13.3
2009-12-18 08:38:05 51°18.357 2°50.828 182 3.1 216 12.8
2009-12-18 08:38:10 51°18.353 2°50.824 184 3.4 212 13.1
2009-12-18 08:38:15 51°18.349 2°50.819 185.9 3.5 214 12.6
2009-12-18 08:38:19 51°18.346 2°50.816 188.9 3.7 209 13.2
2009-12-18 08:38:25 51°18.341 2°50.81 191.5 4 215 12.8
2009-12-18 08:38:30 51°18.336 2°50.805 195.2 4.2 212 12.8
2009-12-18 08:38:35 51°18.331 2°50.799 199 4.4 218 12.8
2009-12-18 08:38:39 51°18.327 2°50.794 203.9 4.6 217 12.7
2009-12-18 08:38:45 51°18.321 2°50.786 208.6 4.8 221 13.2
2009-12-18 08:38:50 51°18.315 2°50.778 215 5.2 222 12.6
2009-12-18 08:38:55 51°18.311 2°50.769 220.4 5.2 232 12.4
2009-12-18 08:38:59 51°18.307 2°50.762 227.7 5.4 227 13.1
2009-12-18 08:39:05 51°18.302 2°50.75 234.5 5.4 241 12.4
2009-12-18 08:39:10 51°18.298 2°50.739 240.5 5.7 238 13.1
2009-12-18 08:39:15 51°18.295 2°50.728 248.9 5.5 249 12.9
2009-12-18 08:39:19 51°18.293 2°50.718 256.5 5.6 255 12.6
2009-12-18 08:39:25 51°18.291 2°50.703 265.5 5.9 256 13.2
2009-12-18 08:39:30 51°18.291 2°50.69 273.4 5.9 270 13
2009-12-18 08:39:35 51°18.292 2°50.677 283.2 6.2 274 12.4
2009-12-18 08:39:40 51°18.292 2°50.662 287.8 6.6 272 12.6
2009-12-18 08:39:45 51°18.293 2°50.647 289.3 7 279 12.4
2009-12-18 08:39:50 51°18.294 2°50.63 288 7.8 273 12.6
2009-12-18 08:39:55 51°18.296 2°50.612 287.3 8.3 279 12.5
2009-12-18 08:39:59 51°18.296 2°50.597 287.3 8.8 274 13.4
2009-12-18 08:40:04 51°18.298 2°50.577 286.8 9.3 278 13.3
2009-12-18 08:40:10 51°18.3 2°50.551 286.5 9.7 278 12.7
2009-12-18 08:40:15 51°18.302 2°50.529 286.3 10.1 279 12.8
2009-12-18 08:40:19 51°18.303 2°50.51 286.8 10.5 277 12.5
2009-12-18 08:40:25 51°18.307 2°50.483 285.3 10.5 282 12.8
2009-12-18 08:40:30 51°18.308 2°50.458 286.4 11.1 276 13.1
2009-12-18 08:40:35 51°18.311 2°50.434 285.2 11.1 280 13.5
2009-12-18 08:40:39 51°18.314 2°50.415 286.8 11.2 280 13.3
2009-12-18 08:40:45 51°18.315 2°50.384 285.2 11.5 276 13.2
2009-12-18 08:40:49 51°18.318 2°50.365 286.2 11.3 282 13.4
2009-12-18 08:40:55 51°18.321 2°50.335 286.2 11.5 277 13.4
2009-12-18 08:40:59 51°18.321 2°50.314 283.3 11.7 275 13.3
2009-12-18 08:41:05 51°18.325 2°50.283 283.4 11.8 279 13.1
2009-12-18 08:41:10 51°18.326 2°50.257 283.4 11.8 276 13.3
2009-12-18 08:41:15 51°18.327 2°50.231 282.1 11.8 274 13.9
2009-12-18 08:41:20 51°18.329 2°50.205 282.4 11.9 277 13.6
2009-12-18 08:41:25 51°18.33 2°50.179 281.6 11.8 276 13.3
2009-12-18 08:41:30 51°18.331 2°50.153 281.3 12.1 272 13.8
2009-12-18 08:41:35 51°18.334 2°50.127 281 11.8 280 13
2009-12-18 08:41:40 51°18.334 2°50.1 280.9 12 270 13.8
2009-12-18 08:41:45 51°18.335 2°50.074 279.3 11.9 274 13.3
2009-12-18 08:41:50 51°18.336 2°50.048 279.5 11.9 274 13.4
2009-12-18 08:41:55 51°18.336 2°50.021 278.8 12 271 13.7
2009-12-18 08:41:59 51°18.338 2°50 280.7 11.8 276 13
2009-12-18 08:42:05 51°18.338 2°49.968 276.9 12.1 270 12.5
2009-12-18 08:42:10 51°18.338 2°49.942 275.9 12 271 13.5
2009-12-18 08:42:15 51°18.339 2°49.915 278.3 11.9 273 12.7
2009-12-18 08:42:19 51°18.338 2°49.893 276.6 12.1 272 12.7
2009-12-18 08:42:25 51°18.34 2°49.862 276.9 12.2 271 13
2009-12-18 08:42:30 51°18.339 2°49.835 276 12.1 269 13.3
2009-12-18 08:42:35 51°18.339 2°49.808 276.6 12.2 268 13.3
2009-12-18 08:42:39 51°18.339 2°49.787 275.6 12 272 12.9
2009-12-18 08:42:45 51°18.34 2°49.755 277.4 12 271 12.5
2009-12-18 08:42:50 51°18.34 2°49.728 275.7 12.1 273 12.3
2009-12-18 08:42:55 51°18.341 2°49.702 276.5 11.9 274 12.4
2009-12-18 08:42:59 51°18.34 2°49.68 275 12.1 267 12.5
2009-12-18 08:43:05 51°18.341 2°49.649 276.5 11.9 273 12.5
2009-12-18 08:43:10 51°18.342 2°49.623 277.2 11.8 271 11.7
2009-12-18 08:43:15 51°18.34 2°49.596 274.1 12 267 12.7
2009-12-18 08:43:19 51°18.342 2°49.575 277 11.8 274 11.9
2009-12-18 08:43:25 51°18.341 2°49.544 275.1 11.8 268 11.8
2009-12-18 08:43:30 51°18.342 2°49.517 276.1 11.7 273 11.5
2009-12-18 08:43:35 51°18.341 2°49.491 277.3 11.9 268 11.4
2009-12-18 08:43:39 51°18.341 2°49.47 275.2 11.7 273 10.5
2009-12-18 08:43:45 51°18.342 2°49.438 277.7 12 268 11.2
2009-12-18 08:43:50 51°18.344 2°49.412 276.5 11.8 275 10.6
2009-12-18 08:43:55 51°18.344 2°49.386 278.1 11.7 272 10.7
2009-12-18 08:43:59 51°18.344 2°49.365 277.3 11.7 271 11
2009-12-18 08:44:05 51°18.346 2°49.334 278.5 11.7 274 10.6
2009-12-18 08:44:10 51°18.345 2°49.308 276.6 11.8 272 11
2009-12-18 08:44:15 51°18.348 2°49.283 279.2 11.7 277 10.3
2009-12-18 08:44:19 51°18.345 2°49.261 274.4 12.1 264 11
2009-12-18 08:44:25 51°18.347 2°49.231 277.1 11.7 273 11.1
2009-12-18 08:44:30 51°18.347 2°49.205 277.7 11.8 269 10.1
2009-12-18 08:44:35 51°18.347 2°49.178 275.9 11.7 270 10.2
2009-12-18 08:44:39 51°18.349 2°49.158 278.4 11.6 276 9.3
2009-12-18 08:44:45 51°18.348 2°49.126 275.1 12 266 9
2009-12-18 08:44:50 51°18.35 2°49.1 274 11.7 275 9.6
2009-12-18 08:44:55 51°18.35 2°49.074 278.1 11.7 272 9.1
2009-12-18 08:44:59 51°18.35 2°49.054 275.7 11.9 267 10
2009-12-18 08:45:05 51°18.351 2°49.023 275.2 11.7 273 9.7
2009-12-18 08:45:10 51°18.352 2°48.997 277.7 11.5 275 9.1
2009-12-18 08:45:15 51°18.35 2°48.971 276.4 11.9 267 10.1
2009-12-18 08:45:19 51°18.352 2°48.95 276.2 11.7 274 9.9
2009-12-18 08:45:25 51°18.353 2°48.919 277.9 11.6 273 9.6
2009-12-18 08:45:30 51°18.352 2°48.892 275.9 11.8 270 9.5
2009-12-18 08:45:35 51°18.354 2°48.867 275.9 11.4 277 9.2
2009-12-18 08:45:40 51°18.354 2°48.841 279 11.8 273 9.6
2009-12-18 08:45:45 51°18.355 2°48.814 277.9 12 273 9.2
2009-12-18 08:45:50 51°18.357 2°48.789 280.2 11.6 279 9
2009-12-18 08:45:55 51°18.358 2°48.763 281.7 11.7 273 9.3
2009-12-18 08:45:59 51°18.359 2°48.742 280.1 11.8 277 9.6
2009-12-18 08:46:05 51°18.362 2°48.712 282.4 11.5 280 9.7
2009-12-18 08:46:05 51°18.362 2°48.712 282.4 11.5 279 9.7
2009-12-18 08:46:21 51°18.368 2°48.63 284.5 12 273 10.5
2009-12-18 08:46:21 51°18.368 2°48.63 284.5 12 273 10.5
2009-12-18 08:46:36 51°18.374 2°48.553 284.4 11.8 274 9.9
2009-12-18 08:46:36 51°18.374 2°48.553 284 11.8 274 9.9
2009-12-18 08:46:47 51°18.38 2°48.499 284 11.6 277 9.8
2009-12-18 08:46:53 51°18.384 2°48.47 286.1 11.2 283 9.6
2009-12-18 08:46:58 51°18.386 2°48.445 288.3 11.1 280 9.6
2009-12-18 08:47:03 51°18.388 2°48.42 284.8 11.4 278 9.7
2009-12-18 08:47:07 51°18.39 2°48.4 282.4 11.2 282 9.6
2009-12-18 08:47:13 51°18.394 2°48.371 286.4 11.4 280 10.3
2009-12-18 08:47:18 51°18.397 2°48.345 286.6 11.6 280 10.5
2009-12-18 08:47:23 51°18.399 2°48.32 285.6 11.6 280 10.5
2009-12-18 08:47:27 51°18.402 2°48.3 286.1 11.4 280 10.4
2009-12-18 08:47:33 51°18.405 2°48.27 285.3 11.5 278 10.7
2009-12-18 08:47:38 51°18.407 2°48.245 283.3 11.3 282 10.5
2009-12-18 08:47:43 51°18.41 2°48.219 286.3 11.4 280 10.9
2009-12-18 08:47:47 51°18.412 2°48.199 284 11.5 279 10.9
2009-12-18 08:47:53 51°18.414 2°48.169 283.5 11.6 278 11.6
2009-12-18 08:47:58 51°18.418 2°48.144 285.3 11.7 279 12
2009-12-18 08:48:03 51°18.42 2°48.118 285.2 11.6 280 11.6
2009-12-18 08:48:07 51°18.422 2°48.097 283.8 11.5 283 11.4
2009-12-18 08:48:13 51°18.425 2°48.067 285.6 11.8 278 11.9
2009-12-18 08:48:18 51°18.428 2°48.042 285.2 11.6 280 12.4
2009-12-18 08:48:23 51°18.431 2°48.016 286.3 11.7 281 12.2
2009-12-18 08:48:27 51°18.433 2°47.995 285.4 11.7 279 12.3
2009-12-18 08:48:33 51°18.437 2°47.965 285.7 11.7 281 12.4
2009-12-18 08:48:38 51°18.439 2°47.939 284.3 12 276 13.1
2009-12-18 08:48:43 51°18.442 2°47.914 285.5 11.5 281 12.9
2009-12-18 08:48:47 51°18.444 2°47.894 285.3 11.6 278 12.6
2009-12-18 08:48:53 51°18.447 2°47.863 284.8 11.5 280 13.6
2009-12-18 08:48:58 51°18.449 2°47.838 285.8 11.8 276 14
2009-12-18 08:49:03 51°18.452 2°47.812 284.6 11.6 281 13.5
2009-12-18 08:49:07 51°18.455 2°47.792 286.7 11.7 279 13.5
2009-12-18 08:49:13 51°18.457 2°47.761 284.6 11.7 277 13.4
2009-12-18 08:49:18 51°18.46 2°47.736 283.8 11.6 280 13.2
2009-12-18 08:49:23 51°18.462 2°47.71 285.7 11.8 278 13.3
2009-12-18 08:49:27 51°18.464 2°47.69 284.7 11.9 278 13.5
2009-12-18 08:49:33 51°18.463 2°47.657 280 12 269 13.7
2009-12-18 08:49:38 51°18.466 2°47.632 278.5 11.8 276 13.4
2009-12-18 08:49:43 51°18.465 2°47.606 278.1 11.8 269 13.7
2009-12-18 08:49:47 51°18.465 2°47.585 275.8 11.8 271 13.7
2009-12-18 08:49:53 51°18.463 2°47.553 271.6 12.1 265 14.7
2009-12-18 08:49:58 51°18.464 2°47.526 273.2 12 269 14.9
2009-12-18 08:50:03 51°18.463 2°47.499 272.7 12.2 265 14.7
2009-12-18 08:50:07 51°18.461 2°47.478 269.8 12.2 263 15.4
2009-12-18 08:50:13 51°18.462 2°47.446 272 12 271 15.3
2009-12-18 08:50:18 51°18.459 2°47.419 270.9 12.1 263 15.6
2009-12-18 08:50:23 51°18.458 2°47.392 269.1 12.1 265 16
2009-12-18 08:50:28 51°18.456 2°47.366 269.8 12.1 265 16.1
2009-12-18 08:50:33 51°18.455 2°47.338 268.7 12.4 262 16.1
2009-12-18 08:50:38 51°18.453 2°47.312 267.9 12 267 16
2009-12-18 08:50:43 51°18.451 2°47.285 269.7 12.3 262 16.2
2009-12-18 08:50:48 51°18.45 2°47.258 267.2 12.1 265 16.4
2009-12-18 08:50:53 51°18.448 2°47.231 268.2 12.2 264 16.3
2009-12-18 08:50:58 51°18.446 2°47.204 269.1 12.1 265 17.1
2009-12-18 08:51:03 51°18.445 2°47.177 269.5 12.1 265 17.4
2009-12-18 08:51:07 51°18.444 2°47.156 269.7 12 264 17.7
2009-12-18 08:51:13 51°18.443 2°47.124 270.6 12 267 16.8
2009-12-18 08:51:18 51°18.441 2°47.097 270 12.1 266 16.7
2009-12-18 08:51:23 51°18.44 2°47.07 271 12.2 265 17.4
2009-12-18 08:51:27 51°18.44 2°47.049 271.8 12.1 270 16.9
2009-12-18 08:51:33 51°18.438 2°47.017 271.5 12.3 264 16.9
2009-12-18 08:51:38 51°18.437 2°46.99 271.5 12.2 268 17.2
2009-12-18 08:51:43 51°18.437 2°46.963 272.6 12.1 270 17.6
2009-12-18 08:51:47 51°18.436 2°46.941 272.7 12.4 264 17.9
2009-12-18 08:51:52 51°18.435 2°46.914 271.3 12.2 268 17.8
2009-12-18 08:51:58 51°18.435 2°46.881 273.5 12.2 270 17.6
2009-12-18 08:52:03 51°18.434 2°46.855 273.2 12.1 269 17.3
2009-12-18 08:52:07 51°18.433 2°46.833 272.3 12.4 266 18
2009-12-18 08:52:13 51°18.434 2°46.801 274.1 12.1 272 18.3
2009-12-18 08:52:18 51°18.433 2°46.774 275 12.3 269 18.2
2009-12-18 08:52:23 51°18.434 2°46.747 276.6 12 274 18
2009-12-18 08:52:27 51°18.435 2°46.726 277.8 12.2 270 18.1
2009-12-18 08:52:33 51°18.435 2°46.694 276.8 11.9 271 18.3
2009-12-18 08:52:38 51°18.437 2°46.668 278.8 11.9 276 17.7
2009-12-18 08:52:43 51°18.436 2°46.641 277.4 12.1 270 17.6
2009-12-18 08:52:47 51°18.438 2°46.62 278 12.1 274 17.8
2009-12-18 08:52:53 51°18.439 2°46.587 279.3 12.1 275 15.3
2009-12-18 08:52:58 51°18.439 2°46.56 279.1 12.3 270 16.9
2009-12-18 08:53:03 51°18.44 2°46.534 278.8 12.1 273 17.9
2009-12-18 08:53:07 51°18.441 2°46.512 278.7 12.1 273 18
2009-12-18 08:53:13 51°18.442 2°46.48 278.5 12.1 273 17.9
2009-12-18 08:53:18 51°18.443 2°46.453 280 12.1 273 18.1
2009-12-18 08:53:23 51°18.443 2°46.426 279.3 12.1 272 18.3
2009-12-18 08:53:27 51°18.444 2°46.405 279.4 12.1 274 18.2
2009-12-18 08:53:33 51°18.445 2°46.373 279 12.1 270 18.2
2009-12-18 08:53:38 51°18.447 2°46.346 279.2 11.8 275 17.7
2009-12-18 08:53:43 51°18.447 2°46.319 278.8 12.1 271 18.9
2009-12-18 08:53:47 51°18.447 2°46.298 278.7 12.2 272 18
2009-12-18 08:53:53 51°18.449 2°46.265 279.5 12.2 274 18
2009-12-18 08:53:58 51°18.45 2°46.238 279 12.1 272 18.3
2009-12-18 08:54:03 51°18.45 2°46.211 279.2 12.3 272 19.2
2009-12-18 08:54:07 51°18.451 2°46.19 278.8 12.2 273 19.1
2009-12-18 08:54:13 51°18.453 2°46.157 279.3 12.3 275 18.7
2009-12-18 08:54:18 51°18.453 2°46.13 278.8 12.3 272 18.7
2009-12-18 08:54:23 51°18.453 2°46.103 279.1 12.2 273 19.4
2009-12-18 08:54:27 51°18.455 2°46.081 279.1 12.4 269 19.3
2009-12-18 08:54:33 51°18.455 2°46.049 277.7 12 276 18.8
2009-12-18 08:54:38 51°18.456 2°46.022 280.1 12.3 271 19.7
2009-12-18 08:54:43 51°18.457 2°45.995 279.3 12.1 273 19.2
2009-12-18 08:54:47 51°18.457 2°45.973 278.4 12.2 273 19.2
2009-12-18 08:54:53 51°18.459 2°45.941 279.5 12.2 275 19
2009-12-18 08:54:57 51°18.459 2°45.919 280 12.2 273 19.3
2009-12-18 08:55:03 51°18.46 2°45.887 280.5 12.3 271 20.2
2009-12-18 08:55:07 51°18.461 2°45.865 279.5 12.2 274 19.8
2009-12-18 08:55:13 51°18.463 2°45.833 279.6 12.3 274 19.9
2009-12-18 08:55:18 51°18.464 2°45.806 280.3 12.1 273 19.6
2009-12-18 08:55:23 51°18.465 2°45.779 281.6 12.2 274 20
2009-12-18 08:55:28 51°18.466 2°45.752 278.7 12.3 274 19.9
2009-12-18 08:55:33 51°18.467 2°45.725 281 12.3 274 19.8
2009-12-18 08:55:38 51°18.468 2°45.697 280.1 12.4 272 20.4
2009-12-18 08:55:43 51°18.47 2°45.671 279.9 12.2 275 19.5
2009-12-18 08:55:47 51°18.469 2°45.648 279.2 12.5 270 20
2009-12-18 08:55:53 51°18.471 2°45.616 279.5 12.1 275 20.4
2009-12-18 08:55:58 51°18.472 2°45.589 279.9 12.4 273 19.7
2009-12-18 08:56:03 51°18.473 2°45.562 278.8 12.3 273 19.9
2009-12-18 08:56:07 51°18.474 2°45.54 280.5 12.4 273 20.6
2009-12-18 08:56:13 51°18.475 2°45.507 281.4 12.2 274 20.3
2009-12-18 08:56:18 51°18.475 2°45.48 277.8 12.3 270 20
2009-12-18 08:56:23 51°18.476 2°45.453 280.4 12.4 272 20.9
2009-12-18 08:56:27 51°18.477 2°45.432 279.7 12.4 274 19.9
2009-12-18 08:56:33 51°18.478 2°45.398 279.7 12.6 271 20.1
2009-12-18 08:56:38 51°18.48 2°45.372 281.4 12.1 277 18.8
2009-12-18 08:56:43 51°18.479 2°45.344 278.8 12.7 266 19.8
2009-12-18 08:56:47 51°18.48 2°45.322 277.3 12.1 276 19.1
2009-12-18 08:56:53 51°18.481 2°45.29 278.7 12.5 270 19.4
2009-12-18 08:56:58 51°18.482 2°45.263 278.8 12.4 274 19.1
2009-12-18 08:57:03 51°18.483 2°45.235 279.3 12.4 273 18.4
2009-12-18 08:57:07 51°18.483 2°45.214 279.5 12.3 273 18.3
2009-12-18 08:57:13 51°18.485 2°45.181 279.4 12.3 273 18.6
2009-12-18 08:57:18 51°18.486 2°45.154 278.5 12.3 273 19
2009-12-18 08:57:23 51°18.488 2°45.128 280.8 12.1 275 18.1
2009-12-18 08:57:27 51°18.487 2°45.106 278.4 12.3 271 17.2
2009-12-18 08:57:33 51°18.49 2°45.074 281 12.2 275 18.7
2009-12-18 08:57:38 51°18.49 2°45.048 279 12 275 17.5
2009-12-18 08:57:43 51°18.492 2°45.021 281.4 12.2 275 16.6
2009-12-18 08:57:48 51°18.493 2°44.995 280.3 11.9 274 17.2
2009-12-18 08:57:53 51°18.495 2°44.968 279.3 12 274 17.5
2009-12-18 08:57:58 51°18.496 2°44.941 281 12.2 274 16.3
2009-12-18 08:58:03 51°18.497 2°44.914 279.2 12.1 272 16.2
2009-12-18 08:58:07 51°18.499 2°44.894 281.5 12 276 14.1
2009-12-18 08:58:13 51°18.499 2°44.861 278.5 12.2 273 16
2009-12-18 08:58:18 51°18.501 2°44.834 279.5 12.2 273 16.4
2009-12-18 08:58:23 51°18.501 2°44.807 278.2 12.2 274 15.6
2009-12-18 08:58:27 51°18.504 2°44.787 280.8 11.8 277 14
2009-12-18 08:58:33 51°18.502 2°44.754 277.1 12.5 267 14.8
2009-12-18 08:58:38 51°18.506 2°44.729 278.7 11.8 281 15.6
2009-12-18 08:58:43 51°18.505 2°44.702 280.1 12.4 267 15.1
2009-12-18 08:58:47 51°18.506 2°44.681 277.6 11.8 278 13.4
2009-12-18 08:58:53 51°18.508 2°44.649 280.7 11.9 271 12.6
2009-12-18 08:58:58 51°18.508 2°44.623 277 12.1 271 12.2
2009-12-18 08:59:03 51°18.511 2°44.597 279.3 11.7 279 12.7
2009-12-18 08:59:07 51°18.51 2°44.575 277.6 12.2 269 12.3
2009-12-18 08:59:13 51°18.512 2°44.544 278 12.1 278 11.1
2009-12-18 08:59:18 51°18.512 2°44.517 280.6 11.9 269 12.3
2009-12-18 08:59:23 51°18.513 2°44.491 276.3 11.9 271 9.5
2009-12-18 08:59:27 51°18.515 2°44.47 278.3 11.9 278 12.6
2009-12-18 08:59:33 51°18.517 2°44.439 282.6 11.8 277 13.2
2009-12-18 08:59:38 51°18.518 2°44.413 279.9 11.8 273 12.5
2009-12-18 08:59:43 51°18.52 2°44.387 280.8 11.8 278 11.4
2009-12-18 08:59:47 51°18.523 2°44.367 283.1 11.6 277 11.1
2009-12-18 08:59:53 51°18.522 2°44.334 277.1 12.2 268 12.2
2009-12-18 08:59:58 51°18.526 2°44.31 280.1 11.4 282 11.3
2009-12-18 09:00:03 51°18.526 2°44.283 280.2 11.9 271 9.9
2009-12-18 09:00:08 51°18.528 2°44.257 278.7 11.9 279 10.6
2009-12-18 09:00:13 51°18.529 2°44.231 280.5 12 273 12
2009-12-18 09:00:18 51°18.53 2°44.205 277.7 12 271 11.6
2009-12-18 09:00:23 51°18.533 2°44.18 278.8 11.7 279 11.8
2009-12-18 09:00:27 51°18.534 2°44.159 280.2 12 275 11.5
2009-12-18 09:00:33 51°18.536 2°44.126 279.7 12.3 275 12.3
2009-12-18 09:00:38 51°18.538 2°44.101 281.4 11.7 281 11.6
2009-12-18 09:00:43 51°18.539 2°44.075 280.8 11.9 274 11.7
2009-12-18 09:00:47 51°18.54 2°44.053 278.5 12.4 274 12.9
2009-12-18 09:00:53 51°18.544 2°44.022 281.8 11.7 278 -999
2009-12-18 09:00:58 51°18.543 2°43.995 279.1 12.4 270 12.7
2009-12-18 09:01:03 51°18.547 2°43.97 279.2 11.5 284 13.9
2009-12-18 09:01:07 51°18.549 2°43.95 285.3 11.7 272 15.3
2009-12-18 09:01:13 51°18.55 2°43.919 279.3 11.8 276 16.3
2009-12-18 09:01:18 51°18.552 2°43.893 281 11.6 273 16.8
2009-12-18 09:01:23 51°18.552 2°43.867 278.2 11.9 272 18.1
2009-12-18 09:01:27 51°18.555 2°43.847 279.6 11.5 281 18.7
2009-12-18 09:01:33 51°18.555 2°43.815 279.7 11.9 270 20.3
2009-12-18 09:01:38 51°18.557 2°43.789 276.1 11.8 276 20.9
2009-12-18 09:01:43 51°18.558 2°43.763 278.1 12 272 21.5
2009-12-18 09:01:47 51°18.559 2°43.741 278.3 11.9 277 21.2
2009-12-18 09:01:53 51°18.56 2°43.71 278.4 12.1 272 21.8
2009-12-18 09:01:58 51°18.561 2°43.683 277.7 11.9 272 22.7
2009-12-18 09:02:03 51°18.563 2°43.658 280.3 11.8 275 22.4
2009-12-18 09:02:07 51°18.562 2°43.636 276.6 11.8 271 22.4
2009-12-18 09:02:13 51°18.565 2°43.606 280.2 11.8 274 22.1
2009-12-18 09:02:18 51°18.564 2°43.579 277.1 12.2 269 22.2
2009-12-18 09:02:23 51°18.567 2°43.553 277.2 11.8 278 22.1
2009-12-18 09:02:27 51°18.567 2°43.532 278.8 12 271 22.1
2009-12-18 09:02:33 51°18.568 2°43.5 277.4 12 275 21.9
2009-12-18 09:02:38 51°18.567 2°43.473 277 12.4 269 23.2
2009-12-18 09:02:43 51°18.571 2°43.448 279.2 11.8 280 22.9
2009-12-18 09:02:47 51°18.57 2°43.426 279.5 12.2 269 22.3
2009-12-18 09:02:53 51°18.571 2°43.394 277.3 12 275 22.9
2009-12-18 09:02:58 51°18.573 2°43.367 279.6 12.1 272 23
2009-12-18 09:03:03 51°18.573 2°43.341 277.7 11.9 273 22.5
2009-12-18 09:03:07 51°18.575 2°43.32 279.5 12 277 22.3
2009-12-18 09:03:13 51°18.576 2°43.288 279.5 11.9 271 22.3
2009-12-18 09:03:18 51°18.577 2°43.262 277.4 11.8 273 22.7
2009-12-18 09:03:23 51°18.579 2°43.236 280.9 11.6 276 22.8
2009-12-18 09:03:27 51°18.579 2°43.215 279.5 11.9 269 22.7
2009-12-18 09:03:33 51°18.58 2°43.184 277.9 11.9 278 22.8
2009-12-18 09:03:38 51°18.582 2°43.157 280.3 12.1 271 22.6
2009-12-18 09:03:43 51°18.582 2°43.131 278.5 11.9 272 22.7
2009-12-18 09:03:47 51°18.584 2°43.11 280.1 12 275 23
2009-12-18 09:03:53 51°18.584 2°43.078 279 12 272 22.4